Terminal Aerodrome Forecast
Issued by NWS

Current Version | Previous Version | Text Only | Print | Product List | Glossary On
Versions: 1 2 3 4 5 6 7 8 9 10 11 12 13 14 15 16 17 18 19 20 21 22 23 24 25 26 27 28 29 30 31 32 33 34 35 36
000 FTUS41 KBOX 011734 TAFBED TAF KBED 011734Z 0118/0218 03012KT 3SM RA BR OVC006 FM012100 03008KT 3SM -RA BR OVC008 FM020300 02010G18KT 2SM -RA BR OVC008 FM021000 03010G18KT 3SM BR OVC008 FM021400 03010G18KT 3SM BR OVC010 FM021600 03011G20KT 6SM BR OVC015=

USA.gov is the U.S. government's official web portal to all federal, state and local government web resources and services.